sensor_id;sensor_type;location;lat;lon;timestamp;P1;durP1;ratioP1;P2;durP2;ratioP2
47337;SDS011;33069;51.970;5.892;2023-07-20T00:00:49;20.33;;;14.65;;
47337;SDS011;33069;51.970;5.892;2023-07-20T00:03:38;16.83;;;14.52;;
47337;SDS011;33069;51.970;5.892;2023-07-20T00:06:25;16.85;;;14.45;;
47337;SDS011;33069;51.970;5.892;2023-07-20T00:09:12;16.25;;;14.65;;
47337;SDS011;33069;51.970;5.892;2023-07-20T00:11:58;18.33;;;15.02;;
47337;SDS011;33069;51.970;5.892;2023-07-20T00:14:45;20.00;;;15.40;;
47337;SDS011;33069;51.970;5.892;2023-07-20T00:17:31;19.30;;;16.45;;
47337;SDS011;33069;51.970;5.892;2023-07-20T00:20:17;19.35;;;15.40;;
47337;SDS011;33069;51.970;5.892;2023-07-20T00:23:03;19.13;;;15.45;;
47337;SDS011;33069;51.970;5.892;2023-07-20T00:25:49;18.65;;;15.57;;
47337;SDS011;33069;51.970;5.892;2023-07-20T00:28:35;17.77;;;15.15;;
47337;SDS011;33069;51.970;5.892;2023-07-20T00:31:21;21.40;;;15.88;;
47337;SDS011;33069;51.970;5.892;2023-07-20T00:34:07;17.40;;;15.18;;
47337;SDS011;33069;51.970;5.892;2023-07-20T00:36:53;16.83;;;14.77;;
47337;SDS011;33069;51.970;5.892;2023-07-20T00:39:39;17.02;;;15.23;;
47337;SDS011;33069;51.970;5.892;2023-07-20T00:42:25;18.45;;;15.55;;
47337;SDS011;33069;51.970;5.892;2023-07-20T00:45:11;18.90;;;16.20;;
47337;SDS011;33069;51.970;5.892;2023-07-20T00:47:57;19.67;;;15.57;;
47337;SDS011;33069;51.970;5.892;2023-07-20T00:50:43;19.48;;;15.93;;
47337;SDS011;33069;51.970;5.892;2023-07-20T00:53:29;17.05;;;15.27;;
47337;SDS011;33069;51.970;5.892;2023-07-20T00:56:16;24.40;;;21.92;;
47337;SDS011;33069;51.970;5.892;2023-07-20T00:59:02;20.15;;;17.70;;
47337;SDS011;33069;51.970;5.892;2023-07-20T01:01:48;17.73;;;14.88;;
47337;SDS011;33069;51.970;5.892;2023-07-20T01:04:34;18.35;;;14.38;;
47337;SDS011;33069;51.970;5.892;2023-07-20T01:07:31;19.70;;;14.60;;
47337;SDS011;33069;51.970;5.892;2023-07-20T01:10:41;21.05;;;13.73;;
47337;SDS011;33069;51.970;5.892;2023-07-20T01:13:31;16.77;;;14.13;;
47337;SDS011;33069;51.970;5.892;2023-07-20T01:16:18;15.90;;;14.20;;
47337;SDS011;33069;51.970;5.892;2023-07-20T01:19:04;20.38;;;14.65;;
47337;SDS011;33069;51.970;5.892;2023-07-20T01:21:55;20.00;;;13.98;;
47337;SDS011;33069;51.970;5.892;2023-07-20T01:24:47;20.48;;;13.63;;
47337;SDS011;33069;51.970;5.892;2023-07-20T01:33:42;16.67;;;13.93;;
47337;SDS011;33069;51.970;5.892;2023-07-20T01:36:30;17.20;;;13.50;;
47337;SDS011;33069;51.970;5.892;2023-07-20T01:39:20;16.50;;;14.57;;
47337;SDS011;33069;51.970;5.892;2023-07-20T01:42:07;18.52;;;13.80;;
47337;SDS011;33069;51.970;5.892;2023-07-20T01:44:53;16.60;;;14.43;;
47337;SDS011;33069;51.970;5.892;2023-07-20T01:47:39;17.70;;;15.63;;
47337;SDS011;33069;51.970;5.892;2023-07-20T01:50:25;18.58;;;15.32;;
47337;SDS011;33069;51.970;5.892;2023-07-20T01:53:11;16.25;;;14.10;;
47337;SDS011;33069;51.970;5.892;2023-07-20T01:55:57;18.60;;;13.82;;
47337;SDS011;33069;51.970;5.892;2023-07-20T01:58:43;15.60;;;14.02;;
47337;SDS011;33069;51.970;5.892;2023-07-20T02:01:29;20.45;;;15.32;;
47337;SDS011;33069;51.970;5.892;2023-07-20T02:04:15;20.73;;;15.15;;
47337;SDS011;33069;51.970;5.892;2023-07-20T02:07:01;18.50;;;15.00;;
47337;SDS011;33069;51.970;5.892;2023-07-20T02:09:47;17.75;;;13.52;;
47337;SDS011;33069;51.970;5.892;2023-07-20T02:12:33;15.88;;;14.00;;
47337;SDS011;33069;51.970;5.892;2023-07-20T02:15:19;15.68;;;13.52;;
47337;SDS011;33069;51.970;5.892;2023-07-20T02:18:05;14.07;;;12.68;;
47337;SDS011;33069;51.970;5.892;2023-07-20T02:20:52;20.55;;;14.85;;
47337;SDS011;33069;51.970;5.892;2023-07-20T02:23:39;15.02;;;12.80;;
47337;SDS011;33069;51.970;5.892;2023-07-20T02:26:25;14.70;;;12.80;;
47337;SDS011;33069;51.970;5.892;2023-07-20T02:29:11;21.77;;;14.15;;
47337;SDS011;33069;51.970;5.892;2023-07-20T02:31:57;14.07;;;10.80;;
47337;SDS011;33069;51.970;5.892;2023-07-20T02:34:43;14.48;;;12.43;;
47337;SDS011;33069;51.970;5.892;2023-07-20T02:37:29;15.00;;;12.88;;
47337;SDS011;33069;51.970;5.892;2023-07-20T02:40:15;15.55;;;12.85;;
47337;SDS011;33069;51.970;5.892;2023-07-20T02:43:01;15.82;;;12.82;;
47337;SDS011;33069;51.970;5.892;2023-07-20T02:45:47;14.13;;;12.40;;
47337;SDS011;33069;51.970;5.892;2023-07-20T02:48:32;22.08;;;12.32;;
47337;SDS011;33069;51.970;5.892;2023-07-20T02:51:18;15.00;;;12.40;;
47337;SDS011;33069;51.970;5.892;2023-07-20T02:54:05;13.95;;;11.90;;
47337;SDS011;33069;51.970;5.892;2023-07-20T02:56:51;13.70;;;12.30;;
47337;SDS011;33069;51.970;5.892;2023-07-20T02:59:37;16.55;;;12.98;;
47337;SDS011;33069;51.970;5.892;2023-07-20T03:02:23;14.10;;;12.63;;
47337;SDS011;33069;51.970;5.892;2023-07-20T03:05:09;19.00;;;13.20;;
47337;SDS011;33069;51.970;5.892;2023-07-20T03:07:55;14.73;;;12.68;;
47337;SDS011;33069;51.970;5.892;2023-07-20T03:10:41;15.00;;;12.27;;
47337;SDS011;33069;51.970;5.892;2023-07-20T03:13:27;14.02;;;12.02;;
47337;SDS011;33069;51.970;5.892;2023-07-20T03:16:15;12.95;;;11.65;;
47337;SDS011;33069;51.970;5.892;2023-07-20T03:19:03;13.60;;;10.88;;
47337;SDS011;33069;51.970;5.892;2023-07-20T03:21:50;13.00;;;10.35;;
47337;SDS011;33069;51.970;5.892;2023-07-20T03:24:36;12.88;;;10.43;;
47337;SDS011;33069;51.970;5.892;2023-07-20T03:27:22;13.65;;;10.40;;
47337;SDS011;33069;51.970;5.892;2023-07-20T03:30:08;11.10;;;9.90;;
47337;SDS011;33069;51.970;5.892;2023-07-20T03:32:54;10.10;;;9.10;;
47337;SDS011;33069;51.970;5.892;2023-07-20T03:35:42;12.23;;;10.23;;
47337;SDS011;33069;51.970;5.892;2023-07-20T03:38:28;12.07;;;9.50;;
47337;SDS011;33069;51.970;5.892;2023-07-20T03:41:14;10.07;;;9.07;;
47337;SDS011;33069;51.970;5.892;2023-07-20T03:44:01;12.32;;;11.10;;
47337;SDS011;33069;51.970;5.892;2023-07-20T03:46:47;10.15;;;9.20;;
47337;SDS011;33069;51.970;5.892;2023-07-20T03:49:33;15.07;;;10.98;;
47337;SDS011;33069;51.970;5.892;2023-07-20T03:52:19;11.52;;;10.25;;
47337;SDS011;33069;51.970;5.892;2023-07-20T03:55:05;13.27;;;11.88;;
47337;SDS011;33069;51.970;5.892;2023-07-20T03:57:52;12.02;;;9.77;;
47337;SDS011;33069;51.970;5.892;2023-07-20T04:00:37;12.70;;;10.85;;
47337;SDS011;33069;51.970;5.892;2023-07-20T04:03:24;12.00;;;10.80;;
47337;SDS011;33069;51.970;5.892;2023-07-20T04:06:11;13.60;;;12.18;;
47337;SDS011;33069;51.970;5.892;2023-07-20T04:08:59;16.20;;;14.57;;
47337;SDS011;33069;51.970;5.892;2023-07-20T04:11:45;21.45;;;18.63;;
47337;SDS011;33069;51.970;5.892;2023-07-20T04:14:31;30.23;;;19.77;;
47337;SDS011;33069;51.970;5.892;2023-07-20T04:17:17;22.73;;;20.33;;
47337;SDS011;33069;51.970;5.892;2023-07-20T04:20:04;24.98;;;20.13;;
47337;SDS011;33069;51.970;5.892;2023-07-20T04:22:51;26.35;;;19.85;;
47337;SDS011;33069;51.970;5.892;2023-07-20T04:25:38;26.67;;;22.42;;
47337;SDS011;33069;51.970;5.892;2023-07-20T04:28:25;23.23;;;20.02;;
47337;SDS011;33069;51.970;5.892;2023-07-20T04:31:14;21.52;;;18.58;;
47337;SDS011;33069;51.970;5.892;2023-07-20T04:34:01;23.60;;;20.65;;
47337;SDS011;33069;51.970;5.892;2023-07-20T04:36:47;23.40;;;19.05;;
47337;SDS011;33069;51.970;5.892;2023-07-20T04:39:33;19.75;;;17.17;;
47337;SDS011;33069;51.970;5.892;2023-07-20T04:42:19;16.33;;;14.63;;
47337;SDS011;33069;51.970;5.892;2023-07-20T04:45:05;17.77;;;15.45;;
47337;SDS011;33069;51.970;5.892;2023-07-20T04:47:52;17.23;;;15.35;;
47337;SDS011;33069;51.970;5.892;2023-07-20T04:50:41;19.40;;;16.38;;
47337;SDS011;33069;51.970;5.892;2023-07-20T04:53:28;18.55;;;15.85;;
47337;SDS011;33069;51.970;5.892;2023-07-20T04:56:14;18.17;;;15.45;;
47337;SDS011;33069;51.970;5.892;2023-07-20T04:59:00;17.40;;;14.73;;
47337;SDS011;33069;51.970;5.892;2023-07-20T05:01:47;16.50;;;14.40;;
47337;SDS011;33069;51.970;5.892;2023-07-20T05:04:33;17.45;;;13.75;;
47337;SDS011;33069;51.970;5.892;2023-07-20T05:07:19;16.17;;;14.50;;
47337;SDS011;33069;51.970;5.892;2023-07-20T05:10:05;14.07;;;12.73;;
47337;SDS011;33069;51.970;5.892;2023-07-20T05:12:52;15.65;;;13.80;;
47337;SDS011;33069;51.970;5.892;2023-07-20T05:15:38;15.48;;;13.98;;
47337;SDS011;33069;51.970;5.892;2023-07-20T05:18:24;13.73;;;12.38;;
47337;SDS011;33069;51.970;5.892;2023-07-20T05:21:10;12.57;;;11.48;;
47337;SDS011;33069;51.970;5.892;2023-07-20T05:23:56;14.98;;;11.32;;
47337;SDS011;33069;51.970;5.892;2023-07-20T05:26:42;12.38;;;11.15;;
47337;SDS011;33069;51.970;5.892;2023-07-20T05:29:28;11.90;;;10.80;;
47337;SDS011;33069;51.970;5.892;2023-07-20T05:32:14;11.90;;;10.70;;
47337;SDS011;33069;51.970;5.892;2023-07-20T05:35:00;11.18;;;10.10;;
47337;SDS011;33069;51.970;5.892;2023-07-20T05:37:46;10.15;;;9.35;;
47337;SDS011;33069;51.970;5.892;2023-07-20T05:40:32;10.23;;;9.43;;
47337;SDS011;33069;51.970;5.892;2023-07-20T05:43:18;10.27;;;9.32;;
47337;SDS011;33069;51.970;5.892;2023-07-20T05:46:04;9.45;;;8.63;;
47337;SDS011;33069;51.970;5.892;2023-07-20T05:48:50;9.63;;;8.77;;
47337;SDS011;33069;51.970;5.892;2023-07-20T05:51:36;9.60;;;8.65;;
47337;SDS011;33069;51.970;5.892;2023-07-20T05:54:25;9.15;;;8.32;;
47337;SDS011;33069;51.970;5.892;2023-07-20T05:57:11;9.48;;;8.75;;
47337;SDS011;33069;51.970;5.892;2023-07-20T05:59:57;9.27;;;8.55;;
47337;SDS011;33069;51.970;5.892;2023-07-20T06:02:43;8.27;;;7.68;;
47337;SDS011;33069;51.970;5.892;2023-07-20T06:05:29;9.63;;;8.93;;
47337;SDS011;33069;51.970;5.892;2023-07-20T06:08:15;8.25;;;7.57;;
47337;SDS011;33069;51.970;5.892;2023-07-20T06:11:01;8.75;;;8.05;;
47337;SDS011;33069;51.970;5.892;2023-07-20T06:13:47;8.55;;;7.85;;
47337;SDS011;33069;51.970;5.892;2023-07-20T06:16:33;8.60;;;8.00;;
47337;SDS011;33069;51.970;5.892;2023-07-20T06:19:19;8.82;;;8.23;;
47337;SDS011;33069;51.970;5.892;2023-07-20T06:22:07;8.73;;;8.02;;
47337;SDS011;33069;51.970;5.892;2023-07-20T06:24:53;8.55;;;7.85;;
47337;SDS011;33069;51.970;5.892;2023-07-20T06:27:39;8.90;;;8.30;;
47337;SDS011;33069;51.970;5.892;2023-07-20T06:30:25;8.93;;;8.27;;
47337;SDS011;33069;51.970;5.892;2023-07-20T06:33:11;9.20;;;8.50;;
47337;SDS011;33069;51.970;5.892;2023-07-20T06:35:57;8.95;;;8.40;;
47337;SDS011;33069;51.970;5.892;2023-07-20T06:38:43;9.70;;;8.80;;
47337;SDS011;33069;51.970;5.892;2023-07-20T06:41:29;9.70;;;8.90;;
47337;SDS011;33069;51.970;5.892;2023-07-20T06:44:15;9.88;;;9.23;;
47337;SDS011;33069;51.970;5.892;2023-07-20T06:47:01;10.80;;;10.05;;
47337;SDS011;33069;51.970;5.892;2023-07-20T06:49:47;10.20;;;9.60;;
47337;SDS011;33069;51.970;5.892;2023-07-20T06:52:33;9.65;;;9.05;;
47337;SDS011;33069;51.970;5.892;2023-07-20T06:55:20;10.02;;;9.07;;
47337;SDS011;33069;51.970;5.892;2023-07-20T06:58:06;10.93;;;10.20;;
47337;SDS011;33069;51.970;5.892;2023-07-20T07:00:52;11.80;;;11.00;;
47337;SDS011;33069;51.970;5.892;2023-07-20T07:03:38;10.75;;;10.05;;
47337;SDS011;33069;51.970;5.892;2023-07-20T07:06:24;10.75;;;9.95;;
47337;SDS011;33069;51.970;5.892;2023-07-20T07:09:10;10.02;;;9.35;;
47337;SDS011;33069;51.970;5.892;2023-07-20T07:11:56;10.90;;;10.20;;
47337;SDS011;33069;51.970;5.892;2023-07-20T07:14:42;10.93;;;10.32;;
47337;SDS011;33069;51.970;5.892;2023-07-20T07:17:28;10.90;;;10.20;;
47337;SDS011;33069;51.970;5.892;2023-07-20T07:20:14;11.48;;;10.30;;
47337;SDS011;33069;51.970;5.892;2023-07-20T07:23:00;11.60;;;10.57;;
47337;SDS011;33069;51.970;5.892;2023-07-20T07:25:46;11.43;;;10.55;;
47337;SDS011;33069;51.970;5.892;2023-07-20T07:28:32;12.00;;;11.30;;
47337;SDS011;33069;51.970;5.892;2023-07-20T07:31:18;11.73;;;11.00;;
47337;SDS011;33069;51.970;5.892;2023-07-20T07:34:05;12.25;;;11.35;;
47337;SDS011;33069;51.970;5.892;2023-07-20T07:36:51;12.30;;;11.57;;
47337;SDS011;33069;51.970;5.892;2023-07-20T07:39:37;13.63;;;12.32;;
47337;SDS011;33069;51.970;5.892;2023-07-20T07:42:23;11.43;;;10.82;;
47337;SDS011;33069;51.970;5.892;2023-07-20T07:45:09;11.45;;;10.85;;
47337;SDS011;33069;51.970;5.892;2023-07-20T07:47:55;11.80;;;11.10;;
47337;SDS011;33069;51.970;5.892;2023-07-20T07:50:41;12.20;;;11.30;;
47337;SDS011;33069;51.970;5.892;2023-07-20T07:53:27;11.68;;;10.95;;
47337;SDS011;33069;51.970;5.892;2023-07-20T07:56:13;11.57;;;10.88;;
47337;SDS011;33069;51.970;5.892;2023-07-20T07:58:59;11.50;;;10.80;;
47337;SDS011;33069;51.970;5.892;2023-07-20T08:01:45;11.88;;;11.18;;
47337;SDS011;33069;51.970;5.892;2023-07-20T08:04:31;11.48;;;10.77;;
47337;SDS011;33069;51.970;5.892;2023-07-20T08:07:17;11.73;;;10.95;;
47337;SDS011;33069;51.970;5.892;2023-07-20T08:10:03;12.40;;;11.70;;
47337;SDS011;33069;51.970;5.892;2023-07-20T08:12:50;12.23;;;11.40;;
47337;SDS011;33069;51.970;5.892;2023-07-20T08:15:36;12.60;;;11.85;;
47337;SDS011;33069;51.970;5.892;2023-07-20T08:18:22;12.40;;;11.60;;
47337;SDS011;33069;51.970;5.892;2023-07-20T08:21:08;13.55;;;12.75;;
47337;SDS011;33069;51.970;5.892;2023-07-20T08:23:54;12.25;;;11.65;;
47337;SDS011;33069;51.970;5.892;2023-07-20T08:26:40;13.48;;;12.60;;
47337;SDS011;33069;51.970;5.892;2023-07-20T08:29:26;13.65;;;12.80;;
47337;SDS011;33069;51.970;5.892;2023-07-20T08:32:12;13.65;;;12.73;;
47337;SDS011;33069;51.970;5.892;2023-07-20T08:34:59;14.25;;;13.30;;
47337;SDS011;33069;51.970;5.892;2023-07-20T08:37:45;13.90;;;13.00;;
47337;SDS011;33069;51.970;5.892;2023-07-20T08:40:32;14.13;;;13.32;;
47337;SDS011;33069;51.970;5.892;2023-07-20T08:43:19;13.82;;;13.13;;
47337;SDS011;33069;51.970;5.892;2023-07-20T08:46:05;13.93;;;13.13;;
47337;SDS011;33069;51.970;5.892;2023-07-20T08:48:51;12.80;;;12.10;;
47337;SDS011;33069;51.970;5.892;2023-07-20T08:51:38;12.98;;;12.27;;
47337;SDS011;33069;51.970;5.892;2023-07-20T08:54:26;13.68;;;12.75;;
47337;SDS011;33069;51.970;5.892;2023-07-20T08:57:15;13.95;;;13.07;;
47337;SDS011;33069;51.970;5.892;2023-07-20T09:00:02;14.80;;;13.88;;
47337;SDS011;33069;51.970;5.892;2023-07-20T09:02:55;14.10;;;13.20;;
47337;SDS011;33069;51.970;5.892;2023-07-20T09:05:42;13.45;;;12.75;;
47337;SDS011;33069;51.970;5.892;2023-07-20T09:08:28;13.80;;;12.80;;
47337;SDS011;33069;51.970;5.892;2023-07-20T09:11:14;13.18;;;12.38;;
47337;SDS011;33069;51.970;5.892;2023-07-20T09:14:04;12.77;;;12.05;;
47337;SDS011;33069;51.970;5.892;2023-07-20T09:16:53;11.40;;;10.80;;
47337;SDS011;33069;51.970;5.892;2023-07-20T09:19:47;12.18;;;11.38;;
47337;SDS011;33069;51.970;5.892;2023-07-20T09:22:33;11.80;;;11.02;;
47337;SDS011;33069;51.970;5.892;2023-07-20T09:25:20;10.45;;;9.85;;
47337;SDS011;33069;51.970;5.892;2023-07-20T09:28:06;10.00;;;9.40;;
47337;SDS011;33069;51.970;5.892;2023-07-20T09:30:53;11.23;;;10.52;;
47337;SDS011;33069;51.970;5.892;2023-07-20T09:33:40;11.82;;;11.15;;
47337;SDS011;33069;51.970;5.892;2023-07-20T09:36:27;10.10;;;9.50;;
47337;SDS011;33069;51.970;5.892;2023-07-20T09:39:13;10.68;;;10.07;;
47337;SDS011;33069;51.970;5.892;2023-07-20T09:42:02;10.40;;;9.52;;
47337;SDS011;33069;51.970;5.892;2023-07-20T09:44:49;11.30;;;10.50;;
47337;SDS011;33069;51.970;5.892;2023-07-20T09:47:37;11.45;;;10.75;;
47337;SDS011;33069;51.970;5.892;2023-07-20T09:50:24;10.55;;;9.95;;
47337;SDS011;33069;51.970;5.892;2023-07-20T09:53:13;10.07;;;9.50;;
47337;SDS011;33069;51.970;5.892;2023-07-20T09:55:59;10.18;;;9.57;;
47337;SDS011;33069;51.970;5.892;2023-07-20T09:58:46;11.23;;;10.52;;
47337;SDS011;33069;51.970;5.892;2023-07-20T10:01:32;10.90;;;10.30;;
47337;SDS011;33069;51.970;5.892;2023-07-20T10:04:19;10.30;;;9.60;;
47337;SDS011;33069;51.970;5.892;2023-07-20T10:07:09;11.07;;;10.27;;
47337;SDS011;33069;51.970;5.892;2023-07-20T10:09:56;12.88;;;11.70;;
47337;SDS011;33069;51.970;5.892;2023-07-20T10:12:47;11.20;;;10.60;;
47337;SDS011;33069;51.970;5.892;2023-07-20T10:15:37;10.65;;;9.85;;
47337;SDS011;33069;51.970;5.892;2023-07-20T10:18:34;10.38;;;9.75;;
47337;SDS011;33069;51.970;5.892;2023-07-20T10:21:26;10.18;;;9.48;;
47337;SDS011;33069;51.970;5.892;2023-07-20T10:24:14;10.75;;;9.95;;
47337;SDS011;33069;51.970;5.892;2023-07-20T10:27:01;10.85;;;9.98;;
47337;SDS011;33069;51.970;5.892;2023-07-20T10:29:48;8.82;;;8.32;;
47337;SDS011;33069;51.970;5.892;2023-07-20T10:32:34;8.05;;;7.65;;
47337;SDS011;33069;51.970;5.892;2023-07-20T10:35:20;9.07;;;8.57;;
47337;SDS011;33069;51.970;5.892;2023-07-20T10:38:06;9.45;;;8.77;;
47337;SDS011;33069;51.970;5.892;2023-07-20T10:40:55;8.68;;;8.07;;
47337;SDS011;33069;51.970;5.892;2023-07-20T10:43:44;8.85;;;8.25;;
47337;SDS011;33069;51.970;5.892;2023-07-20T10:49:20;8.98;;;8.32;;
47337;SDS011;33069;51.970;5.892;2023-07-20T10:52:11;9.10;;;8.50;;
47337;SDS011;33069;51.970;5.892;2023-07-20T10:54:59;9.15;;;8.45;;
47337;SDS011;33069;51.970;5.892;2023-07-20T11:01:00;9.57;;;8.82;;
47337;SDS011;33069;51.970;5.892;2023-07-20T11:03:48;8.85;;;8.15;;
47337;SDS011;33069;51.970;5.892;2023-07-20T11:06:38;8.27;;;7.68;;
47337;SDS011;33069;51.970;5.892;2023-07-20T11:09:33;8.70;;;8.10;;
47337;SDS011;33069;51.970;5.892;2023-07-20T11:12:20;9.13;;;8.40;;
47337;SDS011;33069;51.970;5.892;2023-07-20T11:15:06;9.10;;;8.50;;
47337;SDS011;33069;51.970;5.892;2023-07-20T11:17:52;8.98;;;8.38;;
47337;SDS011;33069;51.970;5.892;2023-07-20T11:20:55;9.02;;;8.40;;
47337;SDS011;33069;51.970;5.892;2023-07-20T11:23:42;9.45;;;8.85;;
47337;SDS011;33069;51.970;5.892;2023-07-20T11:26:29;9.05;;;8.48;;
47337;SDS011;33069;51.970;5.892;2023-07-20T11:29:18;9.65;;;9.02;;
47337;SDS011;33069;51.970;5.892;2023-07-20T11:32:06;9.93;;;9.13;;
47337;SDS011;33069;51.970;5.892;2023-07-20T11:34:52;9.60;;;9.10;;
47337;SDS011;33069;51.970;5.892;2023-07-20T11:37:39;9.43;;;8.73;;
47337;SDS011;33069;51.970;5.892;2023-07-20T11:40:26;9.65;;;9.05;;
47337;SDS011;33069;51.970;5.892;2023-07-20T11:43:12;10.18;;;9.57;;
47337;SDS011;33069;51.970;5.892;2023-07-20T11:45:59;10.40;;;9.70;;
47337;SDS011;33069;51.970;5.892;2023-07-20T11:48:46;9.57;;;9.07;;
47337;SDS011;33069;51.970;5.892;2023-07-20T11:51:32;10.05;;;9.05;;
47337;SDS011;33069;51.970;5.892;2023-07-20T11:54:18;10.70;;;9.82;;
47337;SDS011;33069;51.970;5.892;2023-07-20T11:57:04;10.27;;;9.60;;
47337;SDS011;33069;51.970;5.892;2023-07-20T11:59:54;10.50;;;9.90;;
47337;SDS011;33069;51.970;5.892;2023-07-20T12:02:42;10.70;;;9.80;;
47337;SDS011;33069;51.970;5.892;2023-07-20T12:05:28;10.35;;;9.65;;
47337;SDS011;33069;51.970;5.892;2023-07-20T12:08:14;9.20;;;8.70;;
47337;SDS011;33069;51.970;5.892;2023-07-20T12:11:00;10.00;;;9.40;;
47337;SDS011;33069;51.970;5.892;2023-07-20T12:13:46;10.70;;;9.90;;
47337;SDS011;33069;51.970;5.892;2023-07-20T12:16:32;10.40;;;9.80;;
47337;SDS011;33069;51.970;5.892;2023-07-20T12:19:18;9.13;;;8.63;;
47337;SDS011;33069;51.970;5.892;2023-07-20T12:22:04;8.65;;;8.15;;
47337;SDS011;33069;51.970;5.892;2023-07-20T12:24:52;9.70;;;9.00;;
47337;SDS011;33069;51.970;5.892;2023-07-20T12:27:39;7.90;;;7.40;;
47337;SDS011;33069;51.970;5.892;2023-07-20T12:30:25;8.25;;;7.75;;
47337;SDS011;33069;51.970;5.892;2023-07-20T12:33:11;8.40;;;7.90;;
47337;SDS011;33069;51.970;5.892;2023-07-20T12:36:00;8.82;;;8.23;;
47337;SDS011;33069;51.970;5.892;2023-07-20T12:38:46;10.10;;;9.50;;
47337;SDS011;33069;51.970;5.892;2023-07-20T12:41:32;8.75;;;8.25;;
47337;SDS011;33069;51.970;5.892;2023-07-20T12:44:18;9.43;;;8.63;;
47337;SDS011;33069;51.970;5.892;2023-07-20T12:47:04;10.57;;;9.88;;
47337;SDS011;33069;51.970;5.892;2023-07-20T12:49:51;9.35;;;8.77;;
47337;SDS011;33069;51.970;5.892;2023-07-20T12:52:37;8.00;;;7.60;;
47337;SDS011;33069;51.970;5.892;2023-07-20T12:55:24;8.13;;;7.72;;
47337;SDS011;33069;51.970;5.892;2023-07-20T12:58:11;9.48;;;8.80;;
47337;SDS011;33069;51.970;5.892;2023-07-20T13:00:57;8.43;;;7.90;;
47337;SDS011;33069;51.970;5.892;2023-07-20T13:03:43;8.70;;;8.20;;
47337;SDS011;33069;51.970;5.892;2023-07-20T13:06:29;8.43;;;7.68;;
47337;SDS011;33069;51.970;5.892;2023-07-20T13:09:15;7.38;;;6.85;;
47337;SDS011;33069;51.970;5.892;2023-07-20T13:12:01;7.63;;;7.07;;
47337;SDS011;33069;51.970;5.892;2023-07-20T13:14:47;7.82;;;7.30;;
47337;SDS011;33069;51.970;5.892;2023-07-20T13:17:34;8.00;;;7.32;;
47337;SDS011;33069;51.970;5.892;2023-07-20T13:20:20;8.18;;;7.68;;
47337;SDS011;33069;51.970;5.892;2023-07-20T13:23:06;8.35;;;7.85;;
47337;SDS011;33069;51.970;5.892;2023-07-20T13:25:52;7.72;;;7.22;;
47337;SDS011;33069;51.970;5.892;2023-07-20T13:28:38;10.68;;;9.98;;
47337;SDS011;33069;51.970;5.892;2023-07-20T13:31:24;8.30;;;7.70;;
47337;SDS011;33069;51.970;5.892;2023-07-20T13:34:10;9.70;;;9.20;;
47337;SDS011;33069;51.970;5.892;2023-07-20T13:36:57;9.70;;;9.05;;
47337;SDS011;33069;51.970;5.892;2023-07-20T13:39:43;10.07;;;9.38;;
47337;SDS011;33069;51.970;5.892;2023-07-20T13:42:29;9.63;;;9.07;;
47337;SDS011;33069;51.970;5.892;2023-07-20T13:45:15;9.43;;;8.82;;
47337;SDS011;33069;51.970;5.892;2023-07-20T13:48:01;9.63;;;9.02;;
47337;SDS011;33069;51.970;5.892;2023-07-20T13:50:47;9.30;;;8.70;;
47337;SDS011;33069;51.970;5.892;2023-07-20T13:53:33;11.38;;;10.68;;
47337;SDS011;33069;51.970;5.892;2023-07-20T13:56:19;9.73;;;9.13;;
47337;SDS011;33069;51.970;5.892;2023-07-20T13:59:05;9.40;;;8.80;;
47337;SDS011;33069;51.970;5.892;2023-07-20T14:01:51;10.07;;;9.48;;
47337;SDS011;33069;51.970;5.892;2023-07-20T14:04:37;9.35;;;8.85;;
47337;SDS011;33069;51.970;5.892;2023-07-20T14:07:23;9.55;;;8.93;;
47337;SDS011;33069;51.970;5.892;2023-07-20T14:10:09;10.35;;;9.25;;
47337;SDS011;33069;51.970;5.892;2023-07-20T14:12:55;8.70;;;8.10;;
47337;SDS011;33069;51.970;5.892;2023-07-20T14:15:41;9.10;;;8.50;;
47337;SDS011;33069;51.970;5.892;2023-07-20T14:18:27;9.00;;;8.40;;
47337;SDS011;33069;51.970;5.892;2023-07-20T14:21:13;8.73;;;8.02;;
47337;SDS011;33069;51.970;5.892;2023-07-20T14:23:59;8.80;;;8.18;;
47337;SDS011;33069;51.970;5.892;2023-07-20T14:26:45;8.68;;;8.00;;
47337;SDS011;33069;51.970;5.892;2023-07-20T14:29:33;9.48;;;8.60;;
47337;SDS011;33069;51.970;5.892;2023-07-20T14:32:21;9.18;;;8.38;;
47337;SDS011;33069;51.970;5.892;2023-07-20T14:35:07;7.95;;;7.45;;
47337;SDS011;33069;51.970;5.892;2023-07-20T14:37:54;8.43;;;7.80;;
47337;SDS011;33069;51.970;5.892;2023-07-20T14:40:40;6.70;;;6.20;;
47337;SDS011;33069;51.970;5.892;2023-07-20T14:43:26;7.53;;;6.93;;
47337;SDS011;33069;51.970;5.892;2023-07-20T14:46:12;8.50;;;7.93;;
47337;SDS011;33069;51.970;5.892;2023-07-20T14:48:58;8.40;;;7.80;;
47337;SDS011;33069;51.970;5.892;2023-07-20T14:51:44;8.60;;;8.10;;
47337;SDS011;33069;51.970;5.892;2023-07-20T14:54:32;8.43;;;7.80;;
47337;SDS011;33069;51.970;5.892;2023-07-20T14:57:18;9.70;;;8.70;;
47337;SDS011;33069;51.970;5.892;2023-07-20T15:00:04;9.55;;;8.95;;
47337;SDS011;33069;51.970;5.892;2023-07-20T15:02:56;7.45;;;6.78;;
47337;SDS011;33069;51.970;5.892;2023-07-20T15:05:42;10.05;;;9.35;;
47337;SDS011;33069;51.970;5.892;2023-07-20T15:08:28;10.07;;;9.43;;
47337;SDS011;33069;51.970;5.892;2023-07-20T15:11:14;9.20;;;8.70;;
47337;SDS011;33069;51.970;5.892;2023-07-20T15:14:00;9.80;;;9.20;;
47337;SDS011;33069;51.970;5.892;2023-07-20T15:16:46;9.40;;;8.52;;
47337;SDS011;33069;51.970;5.892;2023-07-20T15:19:32;8.70;;;8.10;;
47337;SDS011;33069;51.970;5.892;2023-07-20T15:22:19;8.10;;;7.60;;
47337;SDS011;33069;51.970;5.892;2023-07-20T15:25:08;8.40;;;7.90;;
47337;SDS011;33069;51.970;5.892;2023-07-20T15:27:57;9.48;;;8.90;;
47337;SDS011;33069;51.970;5.892;2023-07-20T15:30:43;9.93;;;9.20;;
47337;SDS011;33069;51.970;5.892;2023-07-20T15:33:29;9.70;;;9.10;;
47337;SDS011;33069;51.970;5.892;2023-07-20T15:36:16;9.60;;;9.10;;
47337;SDS011;33069;51.970;5.892;2023-07-20T15:39:02;9.65;;;9.15;;
47337;SDS011;33069;51.970;5.892;2023-07-20T15:41:48;9.93;;;9.20;;
47337;SDS011;33069;51.970;5.892;2023-07-20T15:44:34;10.32;;;9.55;;
47337;SDS011;33069;51.970;5.892;2023-07-20T15:47:20;9.90;;;9.27;;
47337;SDS011;33069;51.970;5.892;2023-07-20T15:50:06;9.50;;;8.90;;
47337;SDS011;33069;51.970;5.892;2023-07-20T15:52:52;10.32;;;9.52;;
47337;SDS011;33069;51.970;5.892;2023-07-20T15:55:38;9.95;;;9.27;;
47337;SDS011;33069;51.970;5.892;2023-07-20T15:58:24;10.25;;;9.57;;
47337;SDS011;33069;51.970;5.892;2023-07-20T16:01:10;9.73;;;9.02;;
47337;SDS011;33069;51.970;5.892;2023-07-20T16:03:56;9.85;;;9.00;;
47337;SDS011;33069;51.970;5.892;2023-07-20T16:06:43;9.40;;;8.90;;
47337;SDS011;33069;51.970;5.892;2023-07-20T16:09:29;9.68;;;9.00;;
47337;SDS011;33069;51.970;5.892;2023-07-20T16:12:15;9.88;;;9.27;;
47337;SDS011;33069;51.970;5.892;2023-07-20T16:15:01;9.60;;;9.00;;
47337;SDS011;33069;51.970;5.892;2023-07-20T16:17:47;9.35;;;8.82;;
47337;SDS011;33069;51.970;5.892;2023-07-20T16:20:33;9.32;;;8.73;;
47337;SDS011;33069;51.970;5.892;2023-07-20T16:23:19;9.10;;;8.50;;
47337;SDS011;33069;51.970;5.892;2023-07-20T16:26:05;9.52;;;8.93;;
47337;SDS011;33069;51.970;5.892;2023-07-20T16:28:51;9.50;;;8.80;;
47337;SDS011;33069;51.970;5.892;2023-07-20T16:31:37;9.80;;;9.25;;
47337;SDS011;33069;51.970;5.892;2023-07-20T16:34:23;9.60;;;8.90;;
47337;SDS011;33069;51.970;5.892;2023-07-20T16:37:09;8.95;;;8.45;;
47337;SDS011;33069;51.970;5.892;2023-07-20T16:39:56;8.93;;;8.38;;